Time,TemperatureF,DewpointF,PressureIn,WindDirection,WindDirectionDegrees,WindSpeedMPH,WindSpeedGustMPH,Humidity,HourlyPrecipIn,Conditions,Clouds,dailyrainin,SoftwareType,DateUTC
2013-04-11 00:00:00,54.0,0.0,29.94,WSW,238,6.0,6.0,29,-99.99,,,-99.99,,2013-04-11 07:00:00,
2013-04-11 00:08:00,54.0,0.0,29.94,WSW,244,1.0,6.0,30,-99.99,,,-99.99,,2013-04-11 07:08:00,
2013-04-11 00:16:00,25.0,0.0,29.95,NW,318,2.0,5.0,29,-99.99,,,-99.99,,2013-04-11 07:16:00,
2013-04-11 00:24:00,25.0,0.0,29.95,WNW,301,5.0,5.0,31,-99.99,,,-99.99,,2013-04-11 07:24:00,
2013-04-11 00:32:00,24.0,0.0,29.95,NW,310,2.0,6.0,30,-99.99,,,-99.99,,2013-04-11 07:32:00,
2013-04-11 00:40:00,24.0,0.0,29.95,NW,326,0.0,2.0,29,-99.99,,,-99.99,,2013-04-11 07:40:00,
2013-04-11 00:48:00,23.0,0.0,29.94,SE,138,2.0,5.0,32,-99.99,,,-99.99,,2013-04-11 07:48:00,
2013-04-11 00:56:00,51.0,0.0,29.94,SE,144,3.0,5.0,30,-99.99,,,-99.99,,2013-04-11 07:56:00,
2013-04-11 01:04:00,52.0,0.0,29.94,SSE,164,6.0,6.0,30,-99.99,,,-99.99,,2013-04-11 08:04:00,
2013-04-11 01:12:00,51.0,0.0,29.94,SW,229,3.0,6.0,31,-99.99,,,-99.99,,2013-04-11 08:12:00,
2013-04-11 01:20:00,51.0,0.0,29.93,SSW,209,2.0,3.0,32,-99.99,,,-99.99,,2013-04-11 08:20:00,
2013-04-11 01:28:00,52.0,0.0,29.93,NNE,24,7.0,7.0,28,-99.99,,,-99.99,,2013-04-11 08:28:00,
2013-04-11 01:36:00,50.0,0.0,29.93,NNE,16,1.0,7.0,31,-99.99,,,-99.99,,2013-04-11 08:36:00,
2013-04-11 01:44:00,51.0,0.0,29.92,East,91,2.0,2.0,31,-99.99,,,-99.99,,2013-04-11 08:44:00,
2013-04-11 01:52:00,51.0,0.0,29.92,SE,135,2.0,2.0,30,-99.99,,,-99.99,,2013-04-11 08:52:00,
2013-04-11 02:00:00,51.0,0.0,29.92,SE,145,3.0,3.0,30,-99.99,,,-99.99,,2013-04-11 09:00:00,
2013-04-11 02:08:00,53.0,0.0,29.91,South,181,2.0,3.0,29,-99.99,,,-99.99,,2013-04-11 09:08:00,
2013-04-11 02:16:00,51.0,0.0,29.91,SW,227,5.0,6.0,32,-99.99,,,-99.99,,2013-04-11 09:16:00,
2013-04-11 02:24:00,53.0,0.0,29.90,WSW,255,1.0,6.0,31,-99.99,,,-99.99,,2013-04-11 09:24:00,
2013-04-11 02:32:00,50.0,0.0,29.89,ESE,109,0.0,1.0,34,-99.99,,,-99.99,,2013-04-11 09:32:00,
2013-04-11 02:40:00,49.0,0.0,29.89,NE,44,1.0,3.0,30,-99.99,,,-99.99,,2013-04-11 09:40:00,
2013-04-11 02:48:00,47.0,0.0,29.89,NW,320,2.0,3.0,34,-99.99,,,-99.99,,2013-04-11 09:48:00,
2013-04-11 02:56:00,45.0,0.0,29.89,NW,318,6.0,7.0,33,-99.99,,,-99.99,,2013-04-11 09:56:00,
2013-04-11 03:04:00,46.0,0.0,29.89,West,279,2.0,6.0,33,-99.99,,,-99.99,,2013-04-11 10:04:00,
2013-04-11 03:12:00,46.0,0.0,29.89,North,351,3.0,6.0,32,-99.99,,,-99.99,,2013-04-11 10:12:00,
2013-04-11 03:20:00,45.0,0.0,29.88,North,355,5.0,5.0,34,-99.99,,,-99.99,,2013-04-11 10:20:00,
2013-04-11 03:28:00,46.0,0.0,29.88,North,361,5.0,5.0,36,-99.99,,,-99.99,,2013-04-11 10:28:00,
2013-04-11 03:36:00,46.0,0.0,29.88,North,10,5.0,5.0,34,-99.99,,,-99.99,,2013-04-11 10:36:00,
2013-04-11 03:44:00,0.0,0.0,-0.01,North,0,0.0,0.0,0,-99.99,,,-99.99,,2013-04-11 10:44:00,
2013-04-11 03:52:00,46.0,0.0,29.87,East,83,6.0,7.0,33,-99.99,,,-99.99,,2013-04-11 10:52:00,
2013-04-11 04:00:00,45.0,0.0,29.87,North,361,3.0,3.0,33,-99.99,,,-99.99,,2013-04-11 11:00:00,
2013-04-11 04:08:00,45.0,0.0,29.87,NNW,337,2.0,3.0,35,-99.99,,,-99.99,,2013-04-11 11:08:00,
2013-04-11 04:16:00,46.0,0.0,29.87,NNW,347,5.0,5.0,35,-99.99,,,-99.99,,2013-04-11 11:16:00,
2013-04-11 04:24:00,45.0,0.0,29.87,North,349,5.0,5.0,34,-99.99,,,-99.99,,2013-04-11 11:24:00,
2013-04-11 04:32:00,46.0,0.0,29.86,North,361,1.0,6.0,36,-99.99,,,-99.99,,2013-04-11 11:32:00,
2013-04-11 04:40:00,44.0,0.0,29.86,NNW,333,6.0,6.0,37,-99.99,,,-99.99,,2013-04-11 11:40:00,
2013-04-11 04:48:00,44.0,0.0,29.86,NNW,347,6.0,7.0,36,-99.99,,,-99.99,,2013-04-11 11:48:00,
2013-04-11 04:56:00,44.0,0.0,29.86,WNW,302,3.0,7.0,40,-99.99,,,-99.99,,2013-04-11 11:56:00,
2013-04-11 05:04:00,45.0,0.0,29.85,West,261,0.0,5.0,35,-99.99,,,-99.99,,2013-04-11 12:04:00,
2013-04-11 05:12:00,45.0,0.0,29.85,West,274,5.0,5.0,35,-99.99,,,-99.99,,2013-04-11 12:12:00,
2013-04-11 05:20:00,44.0,0.0,29.85,NW,307,5.0,6.0,35,-99.99,,,-99.99,,2013-04-11 12:20:00,
2013-04-11 05:28:00,44.0,0.0,29.85,WNW,295,2.0,7.0,35,-99.99,,,-99.99,,2013-04-11 12:28:00,
2013-04-11 05:36:00,46.0,0.0,29.85,NW,313,3.0,5.0,33,-99.99,,,-99.99,,2013-04-11 12:36:00,
2013-04-11 05:44:00,44.0,0.0,29.85,WNW,289,5.0,6.0,34,-99.99,,,-99.99,,2013-04-11 12:44:00,
2013-04-11 05:52:00,44.0,0.0,29.85,West,274,6.0,7.0,36,-99.99,,,-99.99,,2013-04-11 12:52:00,
2013-04-11 06:00:00,45.0,0.0,29.84,WNW,292,2.0,6.0,35,-99.99,,,-99.99,,2013-04-11 13:00:00,
2013-04-11 06:08:00,0.0,0.0,-0.01,North,0,0.0,0.0,0,-99.99,,,-99.99,,2013-04-11 13:08:00,
2013-04-11 06:16:00,44.0,0.0,29.84,WSW,257,3.0,3.0,36,-99.99,,,-99.99,,2013-04-11 13:16:00,
2013-04-11 06:24:00,45.0,0.0,29.84,SSW,198,2.0,5.0,37,-99.99,,,-99.99,,2013-04-11 13:24:00,
2013-04-11 06:32:00,44.0,0.0,29.84,SW,217,3.0,5.0,37,-99.99,,,-99.99,,2013-04-11 13:32:00,
2013-04-11 06:40:00,45.0,0.0,29.84,SW,234,5.0,5.0,35,-99.99,,,-99.99,,2013-04-11 13:40:00,
2013-04-11 06:48:00,44.0,0.0,29.84,WSW,248,5.0,6.0,35,-99.99,,,-99.99,,2013-04-11 13:48:00,
2013-04-11 06:56:00,45.0,0.0,29.84,West,272,5.0,6.0,37,-99.99,,,-99.99,,2013-04-11 13:56:00,
2013-04-11 07:04:00,44.0,0.0,29.85,NNE,21,8.0,9.0,36,-99.99,,,-99.99,,2013-04-11 14:04:00,
2013-04-11 07:12:00,45.0,0.0,29.85,North,361,3.0,9.0,40,-99.99,,,-99.99,,2013-04-11 14:12:00,
2013-04-11 07:20:00,46.0,0.0,29.84,WNW,291,0.0,5.0,37,-99.99,,,-99.99,,2013-04-11 14:20:00,
2013-04-11 07:28:00,47.0,0.0,29.84,NE,37,2.0,2.0,34,-99.99,,,-99.99,,2013-04-11 14:28:00,
2013-04-11 07:36:00,48.0,0.0,29.84,ENE,65,3.0,5.0,34,-99.99,,,-99.99,,2013-04-11 14:36:00,
2013-04-11 07:44:00,49.0,0.0,29.84,SSW,202,1.0,3.0,33,-99.99,,,-99.99,,2013-04-11 14:44:00,
2013-04-11 07:52:00,50.0,0.0,29.84,SW,220,3.0,6.0,32,-99.99,,,-99.99,,2013-04-11 14:52:00,
2013-04-11 08:00:00,50.0,0.0,29.84,East,98,5.0,6.0,31,-99.99,,,-99.99,,2013-04-11 15:00:00,
2013-04-11 08:08:00,51.0,0.0,29.84,SSE,148,5.0,6.0,32,-99.99,,,-99.99,,2013-04-11 15:08:00,
2013-04-11 08:16:00,52.0,0.0,29.84,ESE,117,3.0,6.0,30,-99.99,,,-99.99,,2013-04-11 15:16:00,
2013-04-11 08:24:00,26.0,0.0,29.84,SE,138,6.0,7.0,29,-99.99,,,-99.99,,2013-04-11 15:24:00,
2013-04-11 08:32:00,56.0,0.0,29.83,SE,137,7.0,7.0,28,-99.99,,,-99.99,,2013-04-11 15:32:00,
2013-04-11 08:40:00,30.0,0.0,29.83,East,100,7.0,8.0,26,-99.99,,,-99.99,,2013-04-11 15:40:00,
2013-04-11 08:48:00,62.0,0.0,29.84,ESE,103,6.0,9.0,25,-99.99,,,-99.99,,2013-04-11 15:48:00,
2013-04-11 08:56:00,0.0,0.0,-0.01,North,0,0.0,0.0,0,-99.99,,,-99.99,,2013-04-11 15:56:00,
2013-04-11 09:04:00,30.0,0.0,29.83,SE,139,8.0,12.0,24,-99.99,,,-99.99,,2013-04-11 16:04:00,
2013-04-11 09:12:00,34.0,0.0,29.83,ESE,123,8.0,12.0,24,-99.99,,,-99.99,,2013-04-11 16:12:00,
2013-04-11 09:18:00,67.0,0.0,29.83,SE,125,7.0,12.0,25,-99.99,,,-99.99,,2013-04-11 16:18:00,
2013-04-11 09:24:00,68.0,0.0,29.83,East,95,6.0,13.0,25,-99.99,,,-99.99,,2013-04-11 16:24:00,
2013-04-11 09:32:00,0.0,0.0,-0.01,North,0,0.0,0.0,0,-99.99,,,-99.99,,2013-04-11 16:32:00,
2013-04-11 09:40:00,0.0,0.0,-0.01,North,0,0.0,0.0,0,-99.99,,,-99.99,,2013-04-11 16:40:00,
2013-04-11 09:48:00,71.0,0.0,29.83,SE,134,5.0,10.0,22,-99.99,,,-99.99,,2013-04-11 16:48:00,
2013-04-11 09:56:00,71.0,0.0,29.83,ESE,112,9.0,10.0,21,-99.99,,,-99.99,,2013-04-11 16:56:00,
2013-04-11 10:04:00,72.0,0.0,29.84,ESE,123,9.0,15.0,22,-99.99,,,-99.99,,2013-04-11 17:04:00,
2013-04-11 10:12:00,73.0,0.0,29.84,ESE,117,6.0,17.0,24,-99.99,,,-99.99,,2013-04-11 17:12:00,
2013-04-11 10:20:00,73.0,0.0,29.84,ESE,119,9.0,15.0,20,-99.99,,,-99.99,,2013-04-11 17:20:00,
2013-04-11 10:28:00,75.0,0.0,29.84,SE,126,9.0,15.0,18,-99.99,,,-99.99,,2013-04-11 17:28:00,
2013-04-11 10:36:00,74.0,0.0,29.84,SSE,147,12.0,15.0,18,-99.99,,,-99.99,,2013-04-11 17:36:00,
2013-04-11 10:44:00,76.0,0.0,29.84,South,175,9.0,16.0,17,-99.99,,,-99.99,,2013-04-11 17:44:00,
2013-04-11 10:52:00,76.0,0.0,29.84,SSE,155,16.0,16.0,19,-99.99,,,-99.99,,2013-04-11 17:52:00,
2013-04-11 11:00:00,0.0,0.0,-0.01,North,0,0.0,0.0,0,-99.99,,,-99.99,,2013-04-11 18:00:00,
2013-04-11 11:08:00,77.0,0.0,29.83,South,171,13.0,15.0,17,-99.99,,,-99.99,,2013-04-11 18:08:00,
2013-04-11 11:16:00,78.0,0.0,29.83,SSE,158,15.0,17.0,16,-99.99,,,-99.99,,2013-04-11 18:16:00,
2013-04-11 11:28:00,77.0,0.0,29.83,SSE,147,7.0,15.0,19,-99.99,,,-99.99,,2013-04-11 18:28:00,
2013-04-11 11:36:00,78.0,0.0,29.83,South,172,16.0,22.0,18,-99.99,,,-99.99,,2013-04-11 18:36:00,
2013-04-11 11:44:00,78.0,0.0,29.83,SE,143,12.0,18.0,16,-99.99,,,-99.99,,2013-04-11 18:44:00,
2013-04-11 11:52:00,80.0,0.0,29.83,SSE,157,14.0,18.0,15,-99.99,,,-99.99,,2013-04-11 18:52:00,
2013-04-11 12:00:00,80.0,0.0,29.82,South,173,14.0,20.0,17,-99.99,,,-99.99,,2013-04-11 19:00:00,
2013-04-11 12:08:00,0.0,0.0,-0.01,North,0,0.0,0.0,0,-99.99,,,-99.99,,2013-04-11 19:08:00,
2013-04-11 12:16:00,79.0,0.0,29.82,SE,135,12.0,22.0,17,-99.99,,,-99.99,,2013-04-11 19:16:00,
2013-04-11 12:24:00,79.0,0.0,29.81,SSE,160,16.0,22.0,19,-99.99,,,-99.99,,2013-04-11 19:24:00,
2013-04-11 12:32:00,80.0,0.0,29.81,SSE,158,14.0,25.0,16,-99.99,,,-99.99,,2013-04-11 19:32:00,
2013-04-11 12:40:00,79.0,0.0,29.80,ESE,116,9.0,20.0,19,-99.99,,,-99.99,,2013-04-11 19:40:00,
2013-04-11 12:48:00,81.0,0.0,29.80,SSE,156,17.0,20.0,14,-99.99,,,-99.99,,2013-04-11 19:48:00,
2013-04-11 12:56:00,82.0,0.0,29.80,SSE,158,14.0,24.0,15,-99.99,,,-99.99,,2013-04-11 19:56:00,
2013-04-11 13:04:00,81.0,0.0,29.80,SSE,155,14.0,24.0,16,-99.99,,,-99.99,,2013-04-11 20:04:00,
2013-04-11 13:12:00,80.0,0.0,29.79,SSW,206,6.0,24.0,14,-99.99,,,-99.99,,2013-04-11 20:12:00,
2013-04-11 13:20:00,0.0,0.0,-0.01,North,0,0.0,0.0,0,-99.99,,,-99.99,,2013-04-11 20:20:00,
2013-04-11 13:28:00,81.0,0.0,29.79,SE,134,2.0,22.0,14,-99.99,,,-99.99,,2013-04-11 20:28:00,
2013-04-11 13:36:00,82.0,0.0,29.78,SE,126,12.0,16.0,16,-99.99,,,-99.99,,2013-04-11 20:36:00,
2013-04-11 13:44:00,0.0,0.0,-0.01,North,0,0.0,0.0,0,-99.99,,,-99.99,,2013-04-11 20:44:00,
2013-04-11 13:52:00,81.0,0.0,29.77,East,87,8.0,24.0,18,-99.99,,,-99.99,,2013-04-11 20:52:00,
2013-04-11 14:00:00,81.0,0.0,29.78,SSE,168,8.0,20.0,15,-99.99,,,-99.99,,2013-04-11 21:00:00,
2013-04-11 14:08:00,82.0,0.0,29.77,South,172,7.0,16.0,14,-99.99,,,-99.99,,2013-04-11 21:08:00,
2013-04-11 14:16:00,82.0,0.0,29.77,South,186,7.0,14.0,16,-99.99,,,-99.99,,2013-04-11 21:16:00,
2013-04-11 14:24:00,81.0,0.0,29.77,SSE,163,9.0,16.0,18,-99.99,,,-99.99,,2013-04-11 21:24:00,
2013-04-11 14:32:00,82.0,0.0,29.76,SE,130,8.0,21.0,16,-99.99,,,-99.99,,2013-04-11 21:32:00,
2013-04-11 14:40:00,82.0,0.0,29.76,SE,144,13.0,17.0,16,-99.99,,,-99.99,,2013-04-11 21:40:00,
2013-04-11 14:48:00,83.0,0.0,29.75,SSE,168,12.0,18.0,14,-99.99,,,-99.99,,2013-04-11 21:48:00,
2013-04-11 14:56:00,83.0,0.0,29.75,SSE,148,16.0,18.0,14,-99.99,,,-99.99,,2013-04-11 21:56:00,
2013-04-11 15:04:00,83.0,0.0,29.74,SSW,196,10.0,17.0,16,-99.99,,,-99.99,,2013-04-11 22:04:00,
2013-04-11 15:12:00,83.0,0.0,29.74,South,183,9.0,16.0,13,-99.99,,,-99.99,,2013-04-11 22:12:00,
2013-04-11 15:20:00,83.0,0.0,29.73,SSE,150,10.0,18.0,16,-99.99,,,-99.99,,2013-04-11 22:20:00,
2013-04-11 15:28:00,84.0,0.0,29.73,SSE,168,20.0,22.0,15,-99.99,,,-99.99,,2013-04-11 22:28:00,
2013-04-11 15:36:00,83.0,0.0,29.73,ESE,121,13.0,22.0,16,-99.99,,,-99.99,,2013-04-11 22:36:00,
2013-04-11 15:44:00,83.0,0.0,29.72,South,171,8.0,16.0,18,-99.99,,,-99.99,,2013-04-11 22:44:00,
2013-04-11 15:52:00,82.0,0.0,29.72,SE,140,9.0,15.0,18,-99.99,,,-99.99,,2013-04-11 22:52:00,
2013-04-11 16:00:00,82.0,0.0,29.72,South,178,10.0,14.0,16,-99.99,,,-99.99,,2013-04-11 23:00:00,
2013-04-11 16:08:00,83.0,0.0,29.71,SW,230,5.0,16.0,14,-99.99,,,-99.99,,2013-04-11 23:08:00,
2013-04-11 16:16:00,83.0,0.0,29.71,SSE,159,10.0,16.0,16,-99.99,,,-99.99,,2013-04-11 23:16:00,
2013-04-11 16:24:00,83.0,0.0,29.71,WSW,239,8.0,16.0,16,-99.99,,,-99.99,,2013-04-11 23:24:00,
2013-04-11 16:32:00,83.0,0.0,29.71,ESE,118,8.0,14.0,16,-99.99,,,-99.99,,2013-04-11 23:32:00,
2013-04-11 16:40:00,83.0,0.0,29.70,SSE,162,12.0,15.0,16,-99.99,,,-99.99,,2013-04-11 23:40:00,
2013-04-11 16:48:00,84.0,0.0,29.71,SSE,154,12.0,15.0,14,-99.99,,,-99.99,,2013-04-11 23:48:00,
2013-04-11 16:56:00,82.0,0.0,29.70,SE,146,9.0,15.0,14,-99.99,,,-99.99,,2013-04-11 23:56:00,
2013-04-11 17:04:00,82.0,0.0,29.70,SE,142,6.0,20.0,14,-99.99,,,-99.99,,2013-04-12 00:04:00,
2013-04-11 17:12:00,82.0,0.0,29.70,SW,229,3.0,13.0,16,-99.99,,,-99.99,,2013-04-12 00:12:00,
2013-04-11 17:20:00,82.0,0.0,29.70,South,183,9.0,9.0,16,-99.99,,,-99.99,,2013-04-12 00:20:00,
2013-04-11 17:28:00,82.0,0.0,29.70,South,181,7.0,13.0,14,-99.99,,,-99.99,,2013-04-12 00:28:00,
2013-04-11 17:36:00,82.0,0.0,29.70,SSE,157,10.0,16.0,14,-99.99,,,-99.99,,2013-04-12 00:36:00,
2013-04-11 17:44:00,81.0,0.0,29.69,ESE,118,9.0,14.0,14,-99.99,,,-99.99,,2013-04-12 00:44:00,
2013-04-11 17:52:00,82.0,0.0,29.70,SSE,156,10.0,14.0,14,-99.99,,,-99.99,,2013-04-12 00:52:00,
2013-04-11 18:00:00,81.0,0.0,29.69,ESE,119,5.0,14.0,14,-99.99,,,-99.99,,2013-04-12 01:00:00,
2013-04-11 18:08:00,81.0,0.0,29.69,SSW,193,10.0,15.0,14,-99.99,,,-99.99,,2013-04-12 01:08:00,
2013-04-11 18:16:00,81.0,0.0,29.69,South,181,8.0,12.0,16,-99.99,,,-99.99,,2013-04-12 01:16:00,
2013-04-11 18:24:00,81.0,0.0,29.69,SE,145,8.0,10.0,15,-99.99,,,-99.99,,2013-04-12 01:24:00,
2013-04-11 18:32:00,80.0,0.0,29.69,South,175,6.0,15.0,15,-99.99,,,-99.99,,2013-04-12 01:32:00,
2013-04-11 18:40:00,80.0,0.0,29.69,SSW,203,3.0,10.0,19,-99.99,,,-99.99,,2013-04-12 01:40:00,
2013-04-11 18:48:00,80.0,0.0,29.69,SSE,159,6.0,10.0,15,-99.99,,,-99.99,,2013-04-12 01:48:00,
2013-04-11 18:56:00,79.0,0.0,29.69,South,188,2.0,6.0,15,-99.99,,,-99.99,,2013-04-12 01:56:00,
2013-04-11 19:04:00,78.0,0.0,29.69,South,180,5.0,6.0,15,-99.99,,,-99.99,,2013-04-12 02:04:00,
2013-04-11 19:12:00,78.0,0.0,29.69,South,182,6.0,7.0,15,-99.99,,,-99.99,,2013-04-12 02:12:00,
2013-04-11 19:20:00,40.0,0.0,29.69,SSE,161,5.0,7.0,15,-99.99,,,-99.99,,2013-04-12 02:20:00,
2013-04-11 19:28:00,41.0,0.0,29.69,SSE,153,6.0,7.0,18,-99.99,,,-99.99,,2013-04-12 02:28:00,
2013-04-11 19:36:00,75.0,0.0,29.70,SSE,151,6.0,7.0,18,-99.99,,,-99.99,,2013-04-12 02:36:00,
2013-04-11 19:44:00,40.0,0.0,29.70,SSE,153,6.0,7.0,20,-99.99,,,-99.99,,2013-04-12 02:44:00,
2013-04-11 19:52:00,41.0,0.0,29.70,SSE,166,5.0,6.0,16,-99.99,,,-99.99,,2013-04-12 02:52:00,
2013-04-11 20:00:00,37.0,0.0,29.70,South,186,3.0,6.0,19,-99.99,,,-99.99,,2013-04-12 03:00:00,
2013-04-11 20:08:00,36.0,0.0,29.70,West,276,7.0,8.0,19,-99.99,,,-99.99,,2013-04-12 03:08:00,
2013-04-11 20:20:00,72.0,0.0,29.70,NW,311,8.0,9.0,22,-99.99,,,-99.99,,2013-04-12 03:20:00,
2013-04-11 20:28:00,70.0,0.0,29.71,WNW,293,6.0,9.0,25,-99.99,,,-99.99,,2013-04-12 03:28:00,
2013-04-11 20:36:00,69.0,0.0,29.71,WNW,287,5.0,7.0,23,-99.99,,,-99.99,,2013-04-12 03:36:00,
2013-04-11 20:44:00,68.0,0.0,29.72,NW,311,6.0,7.0,29,-99.99,,,-99.99,,2013-04-12 03:44:00,
2013-04-11 20:52:00,67.0,0.0,29.72,West,263,3.0,7.0,28,-99.99,,,-99.99,,2013-04-12 03:52:00,
2013-04-11 21:04:00,34.0,0.0,29.73,SW,233,2.0,5.0,24,-99.99,,,-99.99,,2013-04-12 04:04:00,
2013-04-11 21:08:00,33.0,0.0,29.73,West,276,2.0,3.0,27,-99.99,,,-99.99,,2013-04-12 04:08:00,
2013-04-11 21:16:00,32.0,0.0,29.73,WNW,302,1.0,2.0,27,-99.99,,,-99.99,,2013-04-12 04:16:00,
2013-04-11 21:24:00,31.0,0.0,29.73,NE,37,5.0,5.0,25,-99.99,,,-99.99,,2013-04-12 04:24:00,
2013-04-11 21:32:00,63.0,0.0,29.73,North,10,5.0,5.0,27,-99.99,,,-99.99,,2013-04-12 04:32:00,
2013-04-11 21:40:00,63.0,0.0,29.74,NNE,20,2.0,5.0,27,-99.99,,,-99.99,,2013-04-12 04:40:00,
2013-04-11 21:48:00,64.0,0.0,29.74,South,187,1.0,9.0,29,-99.99,,,-99.99,,2013-04-12 04:48:00,
2013-04-11 21:56:00,64.0,0.0,29.75,South,183,2.0,6.0,29,-99.99,,,-99.99,,2013-04-12 04:56:00,
2013-04-11 22:04:00,64.0,0.0,29.75,SSE,166,3.0,5.0,31,-99.99,,,-99.99,,2013-04-12 05:04:00,
2013-04-11 22:12:00,63.0,0.0,29.75,SSE,161,5.0,5.0,29,-99.99,,,-99.99,,2013-04-12 05:12:00,
2013-04-11 22:20:00,62.0,0.0,29.75,SSE,150,5.0,6.0,30,-99.99,,,-99.99,,2013-04-12 05:20:00,
2013-04-11 22:28:00,62.0,0.0,29.75,South,169,6.0,8.0,29,-99.99,,,-99.99,,2013-04-12 05:28:00,
2013-04-11 22:36:00,62.0,0.0,29.75,South,185,6.0,8.0,29,-99.99,,,-99.99,,2013-04-12 05:36:00,
2013-04-11 22:44:00,63.0,0.0,29.75,SSW,197,5.0,7.0,31,-99.99,,,-99.99,,2013-04-12 05:44:00,
2013-04-11 22:52:00,63.0,0.0,29.75,SSW,192,3.0,5.0,34,-99.99,,,-99.99,,2013-04-12 05:52:00,
2013-04-11 23:00:00,63.0,0.0,29.75,SW,214,5.0,6.0,32,-99.99,,,-99.99,,2013-04-12 06:00:00,
2013-04-11 23:08:00,61.0,0.0,29.75,South,186,6.0,7.0,34,-99.99,,,-99.99,,2013-04-12 06:08:00,
2013-04-11 23:16:00,61.0,0.0,29.75,South,184,6.0,6.0,33,-99.99,,,-99.99,,2013-04-12 06:16:00,
2013-04-11 23:24:00,61.0,0.0,29.75,South,186,7.0,7.0,34,-99.99,,,-99.99,,2013-04-12 06:24:00,
2013-04-11 23:32:00,60.0,0.0,29.75,South,185,8.0,8.0,37,-99.99,,,-99.99,,2013-04-12 06:32:00,
2013-04-11 23:40:00,60.0,0.0,29.75,South,178,6.0,8.0,36,-99.99,,,-99.99,,2013-04-12 06:40:00,
2013-04-11 23:48:00,59.0,0.0,29.76,North,349,2.0,7.0,37,-99.99,,,-99.99,,2013-04-12 06:48:00,
2013-04-11 23:56:00,58.0,0.0,29.76,NNW,333,2.0,7.0,39,-99.99,,,-99.99,,2013-04-12 06:56:00,